Time;durP1;ratioP1;P1;durP2;ratioP2;P2;SDS_P1;SDS_P2;PMS_P1;PMS_P2;Temp;Humidity;BMP_temperature;BMP_pressure;BME280_temperature;BME280_humidity;BME280_pressure;Samples;Min_cycle;Max_cycle;Signal;HPM_P1;HPM_P2
2023/08/12 00:00:54;;;;;;;2.30;1.90;;;18.00;99.90;18.10;101019.00;;;;4987748;27;117306;-66
2023/08/12 00:03:19;;;;;;;2.78;2.22;;;18.00;99.90;18.10;101020.00;;;;4987174;27;116948;-66
2023/08/12 00:05:45;;;;;;;2.08;1.30;;;18.00;99.90;18.10;101011.00;;;;4987498;27;87424;-66
2023/08/12 00:08:11;;;;;;;1.67;1.58;;;18.00;99.90;18.10;101016.00;;;;4987999;27;110031;-66
2023/08/12 00:10:37;;;;;;;3.55;2.13;;;18.00;99.90;18.10;101006.00;;;;4985486;27;88582;-66
2023/08/12 00:13:03;;;;;;;1.55;1.45;;;18.00;99.90;18.10;101022.00;;;;4989938;27;89093;-65
2023/08/12 00:15:32;;;;;;;2.80;1.92;;;18.00;99.90;18.10;101014.00;;;;4984891;27;102528;-67
2023/08/12 00:17:58;;;;;;;2.97;1.42;;;18.00;99.90;18.10;101018.00;;;;4987935;27;109736;-66
2023/08/12 00:20:24;;;;;;;2.28;1.35;;;18.00;99.90;18.00;101022.00;;;;4985393;27;88101;-66
2023/08/12 00:22:49;;;;;;;2.10;1.52;;;17.90;99.90;18.00;101024.00;;;;4987716;27;88004;-66
2023/08/12 00:25:15;;;;;;;2.25;0.93;;;17.90;99.90;18.00;101015.00;;;;4985965;27;88956;-66
2023/08/12 00:27:41;;;;;;;3.95;1.80;;;17.90;99.90;18.00;101022.00;;;;4986156;27;101134;-67
2023/08/12 00:30:08;;;;;;;4.45;1.65;;;17.90;99.90;18.00;101021.00;;;;4984140;27;116448;-66
2023/08/12 00:32:33;;;;;;;2.10;1.40;;;17.90;99.90;18.00;101014.00;;;;4985562;27;87956;-66
2023/08/12 00:34:59;;;;;;;2.03;1.65;;;17.90;99.90;17.90;101010.00;;;;4986761;27;110454;-66
2023/08/12 00:37:24;;;;;;;2.42;1.60;;;17.80;99.90;17.90;101008.00;;;;4987076;27;110805;-66
2023/08/12 00:39:50;;;;;;;1.90;1.75;;;17.80;99.90;17.80;101002.00;;;;4989130;27;117525;-66
2023/08/12 00:42:16;;;;;;;3.15;1.25;;;17.80;99.90;17.80;101010.00;;;;4989427;27;116714;-66
2023/08/12 00:44:41;;;;;;;3.17;1.80;;;17.70;99.90;17.70;100999.00;;;;4987661;27;110058;-66
2023/08/12 00:47:07;;;;;;;1.83;1.67;;;17.70;99.90;17.70;101001.00;;;;4983486;27;107226;-66
2023/08/12 00:49:33;;;;;;;1.92;1.60;;;17.60;99.90;17.70;100998.00;;;;4986656;27;118087;-66
2023/08/12 00:52:01;;;;;;;1.48;1.38;;;17.60;99.90;17.60;100993.00;;;;4988030;27;88857;-66
2023/08/12 00:54:26;;;;;;;2.90;1.70;;;17.60;99.90;17.60;100995.00;;;;4989110;27;87065;-66
2023/08/12 00:56:53;;;;;;;2.30;1.95;;;17.60;99.90;17.60;100991.00;;;;4992353;27;89145;-66
2023/08/12 00:59:20;;;;;;;2.10;1.50;;;17.40;99.90;17.60;100995.00;;;;4989502;27;88447;-67
2023/08/12 01:01:47;;;;;;;1.75;1.55;;;17.50;99.90;17.50;100995.00;;;;4995042;27;88933;-66
2023/08/12 01:04:13;;;;;;;3.80;1.85;;;17.50;99.90;17.50;100995.00;;;;4989458;27;87658;-66
2023/08/12 01:06:39;;;;;;;1.88;1.50;;;17.40;99.90;17.50;100992.00;;;;4991203;27;105724;-66
2023/08/12 01:09:05;;;;;;;2.38;1.35;;;17.40;99.90;17.50;100988.00;;;;4988598;27;88202;-66
2023/08/12 01:11:36;;;;;;;1.80;1.60;;;17.40;99.90;17.50;100984.00;;;;4989448;27;88245;-66
2023/08/12 01:14:25;;;;;;;2.05;1.83;;;17.40;99.90;17.40;100985.00;;;;4985299;27;109692;-66
2023/08/12 01:17:03;;;;;;;2.17;1.98;;;17.30;99.90;17.40;100983.00;;;;4985629;27;87954;-66
2023/08/12 01:19:39;;;;;;;3.42;2.00;;;17.40;99.90;17.40;100975.00;;;;4986033;27;88539;-66
2023/08/12 01:22:10;;;;;;;2.17;1.98;;;17.30;99.90;17.30;100977.00;;;;4989763;27;109286;-66
2023/08/12 01:24:41;;;;;;;1.75;1.65;;;17.30;99.90;17.30;100978.00;;;;4989688;27;87952;-66
2023/08/12 01:27:09;;;;;;;2.25;1.55;;;17.20;99.90;17.30;100985.00;;;;4988742;27;88477;-66
2023/08/12 01:29:41;;;;;;;2.30;1.67;;;17.10;99.90;17.20;100978.00;;;;4985489;27;89245;-66
2023/08/12 01:32:11;;;;;;;1.90;1.58;;;17.20;99.90;17.20;100975.00;;;;4986434;27;88980;-67
2023/08/12 01:34:51;;;;;;;4.93;1.98;;;17.10;99.90;17.20;100973.00;;;;4989943;27;102307;-66
2023/08/12 01:37:24;;;;;;;2.88;1.95;;;17.10;99.90;17.20;100974.00;;;;4989537;27;87581;-66
2023/08/12 01:39:52;;;;;;;2.10;1.88;;;17.10;99.90;17.20;100963.00;;;;4985614;27;88693;-67
2023/08/12 01:42:19;;;;;;;1.70;1.50;;;17.10;99.90;17.20;100963.00;;;;4984104;27;110448;-67
2023/08/12 01:44:46;;;;;;;3.47;2.13;;;17.10;99.90;17.20;100967.00;;;;4988940;27;87354;-67
2023/08/12 01:47:12;;;;;;;2.95;1.58;;;17.10;99.90;17.10;100967.00;;;;4988054;27;87802;-66
2023/08/12 01:49:37;;;;;;;3.78;2.20;;;17.00;99.90;17.10;100959.00;;;;4987869;28;117713;-67
2023/08/12 01:52:04;;;;;;;1.45;1.40;;;17.00;99.90;17.10;100967.00;;;;4986938;27;117027;-67
2023/08/12 01:54:34;;;;;;;1.85;1.50;;;17.00;99.90;17.10;100967.00;;;;4986041;28;98702;-67
2023/08/12 01:57:08;;;;;;;2.05;1.85;;;17.00;99.90;17.10;100957.00;;;;4988195;28;87715;-66
2023/08/12 01:59:38;;;;;;;2.42;2.22;;;17.00;99.90;17.10;100954.00;;;;4983961;28;89021;-66
2023/08/12 02:02:04;;;;;;;1.73;1.20;;;17.00;99.90;17.10;100954.00;;;;4984023;27;90123;-66
2023/08/12 02:04:30;;;;;;;2.30;2.17;;;17.00;99.90;17.10;100957.00;;;;4984650;27;112055;-67
2023/08/12 02:06:56;;;;;;;1.52;1.42;;;17.00;99.90;17.00;100948.00;;;;4986946;27;87556;-67
2023/08/12 02:09:22;;;;;;;1.25;1.15;;;16.90;99.90;17.00;100935.00;;;;4986561;27;114475;-66
2023/08/12 02:11:49;;;;;;;2.60;2.22;;;16.90;99.90;16.90;100940.00;;;;4986445;28;96702;-66
2023/08/12 02:14:15;;;;;;;1.95;1.70;;;16.80;99.90;16.80;100932.00;;;;4982970;27;89216;-66
2023/08/12 02:16:41;;;;;;;2.75;1.90;;;16.80;99.90;16.80;100934.00;;;;4983278;27;109410;-66
2023/08/12 02:19:07;;;;;;;2.38;2.03;;;16.70;99.90;16.70;100926.00;;;;4987053;27;116180;-66
2023/08/12 02:21:32;;;;;;;1.60;1.50;;;16.70;99.90;16.70;100924.00;;;;4985278;27;87767;-67
2023/08/12 02:23:58;;;;;;;1.85;1.45;;;16.60;99.90;16.70;100926.00;;;;4984758;27;111557;-66
2023/08/12 02:26:24;;;;;;;3.25;1.95;;;16.60;99.90;16.60;100931.00;;;;4986731;27;107924;-66
2023/08/12 02:28:50;;;;;;;2.03;1.92;;;16.60;99.90;16.60;100919.00;;;;4987701;27;117887;-65
2023/08/12 02:31:16;;;;;;;1.42;1.33;;;16.50;99.90;16.60;100916.00;;;;4986727;27;117361;-66
2023/08/12 02:33:43;;;;;;;2.22;2.03;;;16.50;99.90;16.60;100919.00;;;;4989018;27;92868;-65
2023/08/12 02:36:09;;;;;;;2.67;1.60;;;16.50;99.90;16.60;100908.00;;;;4986628;27;97685;-65
2023/08/12 02:38:34;;;;;;;2.70;1.77;;;16.50;99.90;16.60;100912.00;;;;4985974;27;117770;-65
2023/08/12 02:41:00;;;;;;;1.90;1.75;;;16.50;99.90;16.50;100914.00;;;;4982207;27;111514;-66
2023/08/12 02:43:26;;;;;;;2.05;1.70;;;16.50;99.90;16.50;100894.00;;;;4983325;27;110244;-68
2023/08/12 02:45:52;;;;;;;4.15;2.08;;;16.50;99.90;16.50;100904.00;;;;4987891;27;109542;-66
2023/08/12 02:48:17;;;;;;;2.00;1.85;;;16.50;99.90;16.50;100891.00;;;;4992897;27;117553;-66
2023/08/12 02:50:43;;;;;;;2.28;2.03;;;16.40;99.90;16.50;100897.00;;;;4991993;27;94889;-66
2023/08/12 02:53:09;;;;;;;1.75;1.65;;;16.40;99.90;16.50;100903.00;;;;4989027;27;87842;-65
2023/08/12 02:55:35;;;;;;;2.20;1.85;;;16.40;99.90;16.50;100900.00;;;;4990297;27;106861;-66
2023/08/12 02:58:01;;;;;;;3.65;1.70;;;16.50;99.90;16.50;100896.00;;;;4989776;27;107281;-66
2023/08/12 03:00:27;;;;;;;3.90;1.88;;;16.40;99.90;16.50;100896.00;;;;4989693;27;116826;-66
2023/08/12 03:02:53;;;;;;;2.47;2.28;;;16.40;99.90;16.50;100899.00;;;;4986972;27;87886;-66
2023/08/12 03:05:21;;;;;;;5.35;1.88;;;16.40;99.90;16.50;100899.00;;;;4988150;27;89456;-66
2023/08/12 03:07:46;;;;;;;3.15;2.47;;;16.40;99.90;16.50;100897.00;;;;4985641;27;109676;-66
2023/08/12 03:10:18;;;;;;;1.85;1.75;;;16.40;99.90;16.50;100896.00;;;;4989924;27;116045;-66
2023/08/12 03:12:44;;;;;;;3.08;1.60;;;16.40;99.90;16.50;100895.00;;;;4990756;27;103267;-66
2023/08/12 03:15:11;;;;;;;2.30;2.10;;;16.40;99.90;16.40;100903.00;;;;4988462;27;96501;-66
2023/08/12 03:17:38;;;;;;;4.05;2.78;;;16.40;99.90;16.40;100898.00;;;;4990973;27;88069;-66
2023/08/12 03:20:08;;;;;;;2.75;2.08;;;16.30;99.90;16.40;100903.00;;;;4987884;27;88516;-66
2023/08/12 03:22:36;;;;;;;2.33;2.13;;;16.30;99.90;16.40;100899.00;;;;4990629;27;87028;-67
2023/08/12 03:25:03;;;;;;;2.80;1.83;;;16.30;99.90;16.30;100898.00;;;;4990347;27;87975;-66
2023/08/12 03:27:29;;;;;;;2.15;1.80;;;16.30;99.90;16.30;100889.00;;;;4989795;27;88003;-66
2023/08/12 03:29:57;;;;;;;3.30;2.35;;;16.30;99.90;16.30;100898.00;;;;4988097;27;117462;-66
2023/08/12 03:32:25;;;;;;;2.47;1.67;;;16.20;99.90;16.20;100893.00;;;;4991789;27;87842;-66
2023/08/12 03:34:50;;;;;;;2.15;1.95;;;16.20;99.90;16.20;100893.00;;;;4985714;27;88386;-66
2023/08/12 03:37:16;;;;;;;3.30;2.28;;;16.10;99.90;16.20;100884.00;;;;4989871;27;118274;-66
2023/08/12 03:39:42;;;;;;;1.65;1.55;;;16.10;99.90;16.10;100889.00;;;;4989845;27;117587;-66
2023/08/12 03:42:07;;;;;;;4.55;2.67;;;16.10;99.90;16.10;100889.00;;;;4992908;27;110913;-66
2023/08/12 03:44:33;;;;;;;2.10;1.65;;;16.10;99.90;16.10;100891.00;;;;4992387;27;107176;-68
2023/08/12 03:46:58;;;;;;;1.63;1.52;;;16.10;99.90;16.10;100878.00;;;;4991659;27;115534;-67
2023/08/12 03:49:24;;;;;;;2.08;1.98;;;16.10;99.90;16.10;100879.00;;;;4988836;27;116860;-67
2023/08/12 03:51:50;;;;;;;1.80;1.70;;;16.10;99.90;16.10;100881.00;;;;4991296;27;112058;-67
2023/08/12 03:54:15;;;;;;;2.40;2.20;;;16.10;99.90;16.20;100873.00;;;;4986642;27;107080;-67
2023/08/12 03:56:41;;;;;;;6.70;1.83;;;16.10;99.90;16.20;100868.00;;;;4987643;27;116258;-67
2023/08/12 03:59:07;;;;;;;3.38;2.40;;;16.10;99.90;16.20;100868.00;;;;4984832;27;102795;-67
2023/08/12 04:01:32;;;;;;;3.55;2.25;;;16.10;99.90;16.20;100871.00;;;;4988342;27;108884;-67
2023/08/12 04:03:58;;;;;;;1.77;1.63;;;16.10;99.90;16.20;100871.00;;;;4989897;27;107178;-66
2023/08/12 04:06:24;;;;;;;5.10;2.60;;;16.10;99.90;16.20;100870.00;;;;4989134;27;116723;-66
2023/08/12 04:08:49;;;;;;;3.67;2.47;;;16.10;99.90;16.20;100874.00;;;;4987087;27;117337;-66
2023/08/12 04:11:15;;;;;;;2.22;1.85;;;16.10;99.90;16.20;100868.00;;;;4989214;27;110328;-66
2023/08/12 04:13:40;;;;;;;3.38;2.17;;;16.10;99.90;16.20;100867.00;;;;4991244;27;109258;-67
2023/08/12 04:16:06;;;;;;;4.15;2.15;;;16.10;99.90;16.20;100860.00;;;;4990591;27;116674;-66
2023/08/12 04:18:32;;;;;;;2.58;1.80;;;16.10;99.90;16.30;100876.00;;;;4990008;27;116229;-66
2023/08/12 04:20:58;;;;;;;4.35;2.05;;;16.20;99.90;16.30;100863.00;;;;4988799;27;111411;-66
2023/08/12 04:23:23;;;;;;;2.58;2.38;;;16.20;99.90;16.30;100865.00;;;;4989470;27;88035;-66
2023/08/12 04:25:52;;;;;;;3.00;2.58;;;16.10;99.90;16.30;100873.00;;;;4989646;27;88174;-67
2023/08/12 04:28:18;;;;;;;4.28;2.17;;;16.10;99.90;16.40;100875.00;;;;4986535;27;106636;-66
2023/08/12 04:30:48;;;;;;;3.28;2.33;;;16.30;99.90;16.40;100869.00;;;;4989441;27;87723;-66
2023/08/12 04:33:14;;;;;;;4.47;1.92;;;16.30;99.90;16.50;100865.00;;;;4990527;27;87749;-66
2023/08/12 04:35:41;;;;;;;6.03;2.20;;;16.40;99.90;16.50;100867.00;;;;4989070;28;87562;-66
2023/08/12 04:38:07;;;;;;;2.25;2.05;;;16.40;99.90;16.60;100870.00;;;;4988692;27;88015;-66
2023/08/12 04:40:32;;;;;;;2.72;2.13;;;16.10;99.90;16.60;100863.00;;;;4986894;27;87824;-67
2023/08/12 04:42:59;;;;;;;2.03;1.70;;;16.50;99.90;16.70;100864.00;;;;4986562;27;108531;-67
2023/08/12 04:45:25;;;;;;;2.15;1.73;;;16.60;99.90;16.70;100855.00;;;;4985766;27;119177;-67
2023/08/12 04:47:51;;;;;;;2.50;2.13;;;16.60;99.90;16.80;100868.00;;;;4986915;27;109537;-67
2023/08/12 04:50:17;;;;;;;2.88;2.50;;;16.70;99.90;16.80;100864.00;;;;4988012;27;87822;-66
2023/08/12 04:52:43;;;;;;;2.25;2.00;;;16.70;99.90;16.90;100864.00;;;;4988104;27;107410;-67
2023/08/12 04:55:10;;;;;;;2.38;2.17;;;16.80;99.90;16.90;100863.00;;;;4989742;27;117947;-67
2023/08/12 04:57:36;;;;;;;4.15;2.63;;;16.80;99.90;17.00;100866.00;;;;4988175;27;88720;-66
2023/08/12 05:00:03;;;;;;;2.65;2.45;;;16.90;99.90;17.00;100857.00;;;;4987313;27;87559;-67
2023/08/12 05:02:28;;;;;;;2.22;2.05;;;16.90;99.90;17.10;100852.00;;;;4985962;27;87881;-67
2023/08/12 05:04:54;;;;;;;2.25;1.75;;;16.90;99.90;17.10;100863.00;;;;4985212;28;117578;-67
2023/08/12 05:07:20;;;;;;;3.53;2.20;;;17.00;99.90;17.10;100859.00;;;;4989352;27;108994;-66
2023/08/12 05:09:45;;;;;;;3.67;2.47;;;17.00;99.90;17.20;100849.00;;;;4987435;28;87754;-67
2023/08/12 05:12:11;;;;;;;2.22;2.00;;;17.10;99.90;17.20;100851.00;;;;4982125;27;90764;-67
2023/08/12 05:14:39;;;;;;;4.22;2.67;;;17.10;99.90;17.30;100857.00;;;;4989927;27;88111;-67
2023/08/12 05:17:05;;;;;;;2.13;1.92;;;17.50;99.90;17.40;100852.00;;;;4987782;27;88518;-67
2023/08/12 05:19:31;;;;;;;4.93;2.53;;;17.30;99.90;17.60;100848.00;;;;4988153;27;102092;-68
2023/08/12 05:21:57;;;;;;;2.83;2.55;;;17.40;99.90;17.70;100852.00;;;;4985013;28;94320;-67
2023/08/12 05:24:22;;;;;;;4.50;1.88;;;17.50;99.90;17.80;100845.00;;;;4985803;28;116476;-66
2023/08/12 05:26:48;;;;;;;3.92;2.50;;;17.60;99.90;17.90;100852.00;;;;4985545;27;116321;-68
2023/08/12 05:29:14;;;;;;;3.38;2.22;;;17.70;99.90;18.00;100844.00;;;;4987320;27;110358;-66
2023/08/12 05:31:39;;;;;;;2.45;2.25;;;17.80;99.90;18.20;100845.00;;;;4985472;27;107985;-66
2023/08/12 05:34:05;;;;;;;4.30;2.10;;;18.00;99.90;18.30;100835.00;;;;4982794;27;117232;-67
2023/08/12 05:36:31;;;;;;;2.22;2.03;;;18.10;99.90;18.50;100843.00;;;;4981251;27;117727;-66
2023/08/12 05:38:57;;;;;;;3.00;2.13;;;18.30;99.90;18.80;100844.00;;;;4980171;27;90093;-66
2023/08/12 05:41:22;;;;;;;2.10;1.85;;;18.50;99.90;19.00;100837.00;;;;4984632;27;109460;-66
2023/08/12 05:43:48;;;;;;;2.03;1.92;;;18.70;99.90;19.20;100847.00;;;;4981088;27;117486;-67
2023/08/12 05:46:14;;;;;;;2.03;1.65;;;18.90;99.90;19.50;100845.00;;;;4987301;27;89420;-67
2023/08/12 05:48:40;;;;;;;2.22;1.98;;;19.20;99.90;19.80;100838.00;;;;4988133;27;110903;-67
2023/08/12 05:51:06;;;;;;;2.58;2.28;;;19.50;99.90;20.10;100836.00;;;;4980309;27;109785;-66
2023/08/12 05:53:32;;;;;;;2.10;1.83;;;19.80;99.90;20.40;100837.00;;;;4094278;27;10000573;-67
2023/08/12 05:56:01;;;;;;;2.40;1.92;;;20.10;99.90;20.70;100831.00;;;;4982441;27;88777;-67
2023/08/12 05:58:36;;;;;;;2.92;1.90;;;20.40;99.90;20.90;100830.00;;;;4983286;27;117781;-67
2023/08/12 06:01:02;;;;;;;6.72;1.98;;;20.60;99.90;21.20;100837.00;;;;4981970;27;115913;-67
2023/08/12 06:03:27;;;;;;;5.10;1.70;;;20.90;99.90;21.40;100834.00;;;;4988409;27;87663;-67
2023/08/12 06:05:53;;;;;;;2.42;1.55;;;21.10;99.90;21.80;100843.00;;;;4987849;27;106434;-67
2023/08/12 06:08:19;;;;;;;2.75;1.60;;;21.40;99.90;22.10;100844.00;;;;4985260;28;88391;-68
2023/08/12 06:10:44;;;;;;;2.22;2.00;;;21.70;99.90;22.50;100844.00;;;;4983094;27;117156;-67
2023/08/12 06:13:10;;;;;;;1.88;1.77;;;22.10;99.90;22.80;100837.00;;;;4982378;27;110050;-67
2023/08/12 06:15:36;;;;;;;1.58;1.48;;;22.40;99.90;23.10;100834.00;;;;4979574;27;108153;-67
2023/08/12 06:18:02;;;;;;;2.35;1.92;;;22.70;99.90;23.40;100835.00;;;;4984260;27;116938;-67
2023/08/12 06:20:28;;;;;;;2.33;1.60;;;23.00;99.90;23.70;100831.00;;;;4986160;27;88930;-68
2023/08/12 06:22:53;;;;;;;3.55;2.08;;;23.30;99.90;24.00;100826.00;;;;4984129;28;110423;-68
2023/08/12 06:25:19;;;;;;;2.70;1.48;;;23.60;99.90;24.20;100828.00;;;;4985101;27;109013;-68
2023/08/12 06:27:45;;;;;;;1.33;1.23;;;23.90;99.90;24.40;100823.00;;;;4983462;27;118037;-68
2023/08/12 06:30:12;;;;;;;1.48;1.38;;;24.10;99.90;24.50;100819.00;;;;4984124;27;96779;-68
2023/08/12 06:32:39;;;;;;;1.73;1.45;;;24.20;99.90;24.70;100822.00;;;;4987285;28;87875;-68
2023/08/12 06:35:05;;;;;;;4.25;2.00;;;24.40;99.70;24.80;100833.00;;;;4984303;27;88034;-68
2023/08/12 06:37:30;;;;;;;1.67;1.27;;;24.50;99.20;24.90;100833.00;;;;4986428;27;107770;-68
2023/08/12 06:39:56;;;;;;;2.63;1.83;;;24.60;98.90;25.00;100828.00;;;;4982758;27;93038;-66
2023/08/12 06:42:23;;;;;;;1.55;1.17;;;24.80;98.60;25.10;100839.00;;;;4986247;27;110013;-67
2023/08/12 06:44:56;;;;;;;2.30;1.63;;;24.90;98.30;25.30;100832.00;;;;4987791;27;98675;-67
2023/08/12 06:47:21;;;;;;;1.55;1.38;;;25.00;97.30;25.30;100832.00;;;;4985804;27;89364;-66
2023/08/12 06:49:47;;;;;;;1.33;1.20;;;25.10;96.40;25.40;100832.00;;;;4985970;27;107602;-67
2023/08/12 06:52:13;;;;;;;1.50;1.13;;;25.20;95.90;25.40;100828.00;;;;4982695;27;107860;-67
2023/08/12 06:54:38;;;;;;;1.38;1.27;;;25.20;95.80;25.50;100826.00;;;;4987693;27;107121;-67
2023/08/12 06:57:04;;;;;;;3.25;1.33;;;25.30;95.50;25.60;100838.00;;;;4982830;27;116946;-67
2023/08/12 06:59:30;;;;;;;1.20;0.90;;;25.40;95.30;25.70;100830.00;;;;4984165;27;90348;-67
2023/08/12 07:01:56;;;;;;;3.13;1.35;;;25.40;94.60;25.80;100830.00;;;;4983534;27;109767;-67
2023/08/12 07:04:21;;;;;;;2.30;1.15;;;25.50;94.40;25.80;100827.00;;;;4984450;27;88306;-67
2023/08/12 07:06:47;;;;;;;1.55;1.25;;;25.60;94.30;25.90;100830.00;;;;4987037;27;117360;-67
2023/08/12 07:09:22;;;;;;;2.53;1.33;;;25.70;93.90;26.00;100831.00;;;;4979434;27;107850;-67
2023/08/12 07:11:48;;;;;;;1.75;1.33;;;25.70;93.80;26.20;100831.00;;;;4987170;27;108937;-67
2023/08/12 07:14:13;;;;;;;2.08;1.30;;;25.90;93.50;26.30;100831.00;;;;4981777;27;108393;-67
2023/08/12 07:16:39;;;;;;;1.40;1.02;;;26.00;93.40;26.50;100822.00;;;;4985043;27;117051;-66
2023/08/12 07:19:05;;;;;;;1.40;1.30;;;26.20;92.60;26.70;100828.00;;;;4980111;27;117315;-67
2023/08/12 07:21:30;;;;;;;1.40;1.30;;;26.40;91.80;26.90;100821.00;;;;4983370;27;88006;-67
2023/08/12 07:23:56;;;;;;;1.40;1.30;;;26.60;91.20;27.20;100832.00;;;;4986098;27;107896;-67
2023/08/12 07:26:22;;;;;;;1.30;1.10;;;26.80;90.80;27.40;100832.00;;;;4981045;27;116691;-67
2023/08/12 07:28:48;;;;;;;1.58;1.48;;;27.10;90.10;27.80;100833.00;;;;4981872;27;116191;-66
2023/08/12 07:31:13;;;;;;;2.65;1.38;;;27.30;89.40;28.10;100831.00;;;;4984366;27;109427;-67
2023/08/12 07:33:39;;;;;;;1.42;1.33;;;27.70;88.40;28.40;100836.00;;;;4984267;27;99785;-67
2023/08/12 07:36:05;;;;;;;1.38;1.08;;;28.00;85.80;28.70;100831.00;;;;4979349;27;88982;-66
2023/08/12 07:38:31;;;;;;;0.77;0.70;;;28.30;83.40;28.90;100829.00;;;;4984590;27;116801;-67
2023/08/12 07:40:57;;;;;;;1.73;0.90;;;28.50;81.50;29.10;100826.00;;;;4981354;27;87996;-66
2023/08/12 07:43:23;;;;;;;1.20;1.10;;;28.80;78.60;29.30;100833.00;;;;4981419;27;100266;-67
2023/08/12 07:45:55;;;;;;;1.27;0.88;;;28.90;77.70;29.50;100822.00;;;;4986921;27;98918;-68
2023/08/12 07:48:21;;;;;;;1.20;1.10;;;29.10;75.60;29.60;100832.00;;;;4988202;27;117602;-69
2023/08/12 07:50:50;;;;;;;1.45;1.35;;;29.20;73.90;29.70;100824.00;;;;4987348;27;111779;-69
2023/08/12 07:53:16;;;;;;;0.63;0.63;;;29.40;71.90;29.70;100818.00;;;;4987296;27;87960;-69
2023/08/12 07:55:42;;;;;;;0.60;0.55;;;29.40;71.30;29.90;100827.00;;;;4978612;27;117778;-69
2023/08/12 07:58:08;;;;;;;0.73;0.70;;;29.50;71.80;29.90;100829.00;;;;4983476;27;97805;-69
2023/08/12 08:00:34;;;;;;;0.98;0.90;;;29.70;70.40;30.00;100830.00;;;;4983357;27;88308;-69
2023/08/12 08:02:59;;;;;;;1.98;0.93;;;29.70;70.10;30.20;100823.00;;;;4985935;27;89107;-69
2023/08/12 08:05:25;;;;;;;3.65;0.90;;;29.90;68.00;30.30;100826.00;;;;4984347;27;116928;-69
2023/08/12 08:07:51;;;;;;;1.90;0.95;;;30.00;67.00;30.50;100825.00;;;;4984583;27;95020;-69
2023/08/12 08:10:16;;;;;;;1.10;1.00;;;30.10;66.00;30.60;100826.00;;;;4984128;27;109842;-69
2023/08/12 08:12:42;;;;;;;1.75;1.63;;;30.10;65.20;30.80;100826.00;;;;4986643;27;108193;-69
2023/08/12 08:15:08;;;;;;;2.30;1.25;;;30.40;63.30;30.90;100825.00;;;;4985890;27;91706;-70
2023/08/12 08:17:34;;;;;;;1.27;1.10;;;30.50;62.60;31.00;100820.00;;;;4980197;27;102173;-69
2023/08/12 08:19:59;;;;;;;1.58;0.90;;;30.70;62.40;31.10;100816.00;;;;4980342;27;110373;-69
2023/08/12 08:22:25;;;;;;;1.17;1.08;;;30.80;60.70;31.10;100820.00;;;;4980707;27;108106;-70
2023/08/12 08:24:51;;;;;;;1.58;1.33;;;30.80;59.60;31.10;100820.00;;;;4983182;27;116620;-69
2023/08/12 08:27:16;;;;;;;3.03;0.90;;;30.90;58.90;31.10;100817.00;;;;4979534;27;117268;-70
2023/08/12 08:29:42;;;;;;;4.47;0.80;;;30.90;59.40;31.00;100815.00;;;;4983180;27;88207;-69
2023/08/12 08:32:08;;;;;;;3.85;1.33;;;30.80;59.30;31.00;100818.00;;;;4985417;27;87901;-68
2023/08/12 08:34:34;;;;;;;2.28;1.38;;;30.70;59.20;31.10;100815.00;;;;4988782;27;88761;-68
2023/08/12 08:37:00;;;;;;;1.70;1.35;;;30.80;59.20;31.20;100810.00;;;;4983537;27;88066;-69
2023/08/12 08:39:26;;;;;;;1.58;1.05;;;30.90;59.40;31.30;100821.00;;;;4986793;27;93941;-69
2023/08/12 08:41:55;;;;;;;1.35;1.25;;;31.00;58.70;31.40;100819.00;;;;4984943;27;88060;-69
2023/08/12 08:44:25;;;;;;;0.85;0.85;;;31.10;57.50;31.40;100824.00;;;;4983868;27;88810;-68
2023/08/12 08:46:55;;;;;;;1.35;1.25;;;31.20;57.50;31.40;100815.00;;;;4983028;27;89172;-69
2023/08/12 08:49:21;;;;;;;1.90;1.50;;;31.20;56.80;31.40;100821.00;;;;4984490;27;103620;-69
2023/08/12 08:51:47;;;;;;;0.90;0.90;;;31.10;56.70;31.40;100832.00;;;;4984646;27;92908;-69
2023/08/12 08:54:13;;;;;;;1.35;1.02;;;31.10;56.20;31.40;100830.00;;;;4980865;27;88098;-69
2023/08/12 08:56:39;;;;;;;1.55;0.70;;;31.10;56.40;31.40;100823.00;;;;4985826;27;117100;-68
2023/08/12 08:59:05;;;;;;;1.02;0.90;;;31.10;56.30;31.50;100833.00;;;;4982756;27;109909;-69
2023/08/12 09:01:31;;;;;;;1.13;0.85;;;31.10;55.80;31.60;100820.00;;;;4981265;27;109501;-68
2023/08/12 09:03:58;;;;;;;0.50;0.50;;;31.20;56.10;31.60;100823.00;;;;4984837;27;114927;-68
2023/08/12 09:06:29;;;;;;;1.50;1.10;;;31.20;56.00;31.70;100832.00;;;;4981876;27;116833;-68
2023/08/12 09:08:55;;;;;;;3.42;1.73;;;31.30;55.70;31.90;100830.00;;;;4989262;27;88065;-69
2023/08/12 09:11:21;;;;;;;4.03;1.48;;;31.40;55.70;32.00;100832.00;;;;4982460;27;88890;-68
2023/08/12 09:13:48;;;;;;;1.63;1.20;;;31.60;55.10;32.00;100823.00;;;;4981006;27;117548;-68
2023/08/12 09:16:15;;;;;;;1.30;0.63;;;31.70;54.20;32.00;100826.00;;;;4981162;27;88746;-69
2023/08/12 09:18:44;;;;;;;1.42;0.93;;;31.80;54.10;32.10;100834.00;;;;4980234;27;87726;-68
2023/08/12 09:21:10;;;;;;;3.03;1.23;;;31.70;54.30;32.10;100824.00;;;;4979736;27;88328;-69
2023/08/12 09:23:39;;;;;;;1.20;1.10;;;31.80;53.90;32.20;100826.00;;;;4983611;27;103564;-69
2023/08/12 09:26:16;;;;;;;1.65;1.48;;;31.80;54.00;32.40;100808.00;;;;4983906;27;89101;-69
2023/08/12 09:28:43;;;;;;;1.98;1.40;;;31.90;53.90;32.50;100821.00;;;;4981293;27;89186;-69
2023/08/12 09:31:26;;;;;;;1.10;0.95;;;32.00;52.90;32.70;100813.00;;;;4986399;27;88150;-70
2023/08/12 09:33:52;;;;;;;1.38;0.85;;;32.20;53.30;33.00;100818.00;;;;4984682;27;87756;-69
2023/08/12 09:36:21;;;;;;;1.10;0.98;;;32.50;53.60;33.20;100811.00;;;;4982569;27;89003;-69
2023/08/12 09:38:46;;;;;;;1.77;1.35;;;32.70;53.10;33.30;100809.00;;;;4986100;27;88213;-69
2023/08/12 09:41:12;;;;;;;1.95;1.23;;;32.80;51.80;33.10;100809.00;;;;4987627;27;87981;-69
2023/08/12 09:43:44;;;;;;;2.03;0.90;;;32.70;51.00;33.00;100801.00;;;;4979287;27;88021;-69
2023/08/12 09:46:14;;;;;;;0.75;0.75;;;32.70;51.60;32.90;100798.00;;;;4987056;27;116473;-68
2023/08/12 09:48:40;;;;;;;1.30;1.20;;;32.60;51.60;33.00;100801.00;;;;4985853;27;88176;-70
2023/08/12 09:51:08;;;;;;;1.35;1.10;;;32.60;52.00;33.20;100788.00;;;;4982492;27;107082;-69
2023/08/12 09:53:34;;;;;;;2.60;1.00;;;32.70;52.10;33.40;100802.00;;;;4983041;27;88548;-69
2023/08/12 09:56:08;;;;;;;1.17;1.08;;;32.90;52.20;33.70;100788.00;;;;4963581;27;89011;-68
2023/08/12 09:58:36;;;;;;;3.88;1.25;;;33.10;51.70;33.90;100786.00;;;;4987135;27;88001;-69
2023/08/12 10:01:04;;;;;;;1.75;0.93;;;33.30;51.40;34.00;100797.00;;;;4983143;27;88677;-69
2023/08/12 10:03:30;;;;;;;1.55;1.05;;;33.50;51.20;34.10;100785.00;;;;4984435;28;88012;-69
2023/08/12 10:05:56;;;;;;;0.95;0.60;;;33.60;50.80;34.20;100792.00;;;;4988702;27;88389;-69
2023/08/12 10:08:22;;;;;;;1.33;0.88;;;33.70;51.10;34.30;100783.00;;;;4984472;27;88085;-68
2023/08/12 10:10:48;;;;;;;1.08;0.80;;;33.80;49.00;34.30;100775.00;;;;4986683;27;87740;-69
2023/08/12 10:13:15;;;;;;;1.30;1.02;;;33.80;49.30;34.40;100768.00;;;;4984207;27;117578;-68
2023/08/12 10:15:41;;;;;;;5.82;1.00;;;33.90;49.10;34.30;100773.00;;;;4984557;27;88159;-69
2023/08/12 10:18:08;;;;;;;1.27;0.75;;;33.90;48.30;34.20;100773.00;;;;4983847;27;109382;-68
2023/08/12 10:20:36;;;;;;;0.90;0.70;;;33.80;48.20;34.00;100777.00;;;;4968761;28;87995;-69
2023/08/12 10:23:03;;;;;;;1.58;0.88;;;33.60;48.10;33.90;100768.00;;;;4988323;27;117681;-69
2023/08/12 10:25:34;;;;;;;1.10;0.93;;;33.50;47.80;33.70;100768.00;;;;4984495;27;89147;-69
2023/08/12 10:28:00;;;;;;;0.90;0.90;;;33.40;48.30;33.60;100777.00;;;;4987102;27;87789;-69
2023/08/12 10:30:30;;;;;;;1.30;1.15;;;33.20;48.80;33.50;100769.00;;;;4986777;27;100354;-69
2023/08/12 10:32:56;;;;;;;3.05;1.02;;;33.10;49.10;33.50;100771.00;;;;4989008;27;88266;-69
2023/08/12 10:35:22;;;;;;;1.48;1.02;;;33.10;48.80;33.40;100770.00;;;;4984542;27;88543;-69
2023/08/12 10:37:52;;;;;;;3.90;0.90;;;33.00;48.90;33.40;100767.00;;;;4983448;27;88001;-69
2023/08/12 10:40:22;;;;;;;0.77;0.75;;;33.00;49.10;33.40;100766.00;;;;4983785;27;87665;-70